createdAt,value
2022-12-11T00:00:23.803Z,101383.63
2022-12-11T00:02:51.537Z,101387.13
2022-12-11T00:05:19.057Z,101386.47
2022-12-11T00:07:46.666Z,101387.25
2022-12-11T00:10:14.290Z,101383.66
2022-12-11T00:12:41.784Z,101384.34
2022-12-11T00:15:09.905Z,101385.19
2022-12-11T00:17:37.713Z,101391.34
2022-12-11T00:20:05.264Z,101380.97
2022-12-11T00:22:32.520Z,101375.81
2022-12-11T00:25:00.087Z,101389.44
2022-12-11T00:27:27.606Z,101388.59
2022-12-11T00:29:55.347Z,101390.25
2022-12-11T00:32:22.551Z,101389.44
2022-12-11T00:34:49.761Z,101382.63
2022-12-11T00:37:17.304Z,101398.81
2022-12-11T00:39:45.595Z,101397.09
2022-12-11T00:42:13.223Z,101398.69
2022-12-11T00:44:41.498Z,101397.88
2022-12-11T00:47:08.920Z,101401.22
2022-12-11T00:49:36.647Z,101398.69
2022-12-11T00:52:03.964Z,101401.25
2022-12-11T00:54:31.518Z,101400.41
2022-12-11T00:56:59.248Z,101400.56
2022-12-11T00:59:27.952Z,101393.84
2022-12-11T01:01:55.496Z,101392.91
2022-12-11T01:04:23.299Z,101393.78
2022-12-11T01:06:50.833Z,101392.78
2022-12-11T01:09:36.483Z,101390.22
2022-12-11T01:12:04.111Z,101403.13
2022-12-11T01:14:31.544Z,101394.47
2022-12-11T01:16:58.855Z,101397.91
2022-12-11T01:19:26.201Z,101389.38
2022-12-11T01:21:53.716Z,101394.63
2022-12-11T01:24:21.017Z,101393.47
2022-12-11T01:26:48.291Z,101401.97
2022-12-11T01:29:16.052Z,101399.53
2022-12-11T01:31:43.307Z,101402.97
2022-12-11T01:34:10.578Z,101406.47
2022-12-11T01:36:37.863Z,101402.25
2022-12-11T01:39:05.441Z,101403.97
2022-12-11T01:41:33.067Z,101412.47
2022-12-11T01:44:08.361Z,101405.69
2022-12-11T01:46:36.475Z,101401.50
2022-12-11T01:49:06.012Z,101410.78
2022-12-11T01:51:35.842Z,101406.56
2022-12-11T01:54:07.203Z,101403.13
2022-12-11T01:56:36.152Z,101411.72
2022-12-11T01:59:07.410Z,101415.88
2022-12-11T02:01:37.234Z,101416.00
2022-12-11T02:04:05.092Z,101414.31
2022-12-11T02:06:38.122Z,101407.44
2022-12-11T02:09:07.810Z,101401.38
2022-12-11T02:11:50.619Z,101407.44
2022-12-11T02:14:38.087Z,101409.19
2022-12-11T02:17:14.387Z,101410.88
2022-12-11T02:19:41.610Z,101408.38
2022-12-11T02:22:11.400Z,101419.50
2022-12-11T02:24:41.932Z,101423.81
2022-12-11T02:27:32.297Z,101415.16
2022-12-11T02:30:07.812Z,101420.38
2022-12-11T02:32:39.492Z,101420.38
2022-12-11T02:35:09.844Z,101429.00
2022-12-11T02:37:40.072Z,101427.34
2022-12-11T02:40:09.265Z,101428.19
2022-12-11T02:42:38.042Z,101432.38
2022-12-11T02:45:07.932Z,101430.56
2022-12-11T02:47:35.664Z,101421.97
2022-12-11T02:50:07.398Z,101430.41
2022-12-11T02:52:35.021Z,101434.63
2022-12-11T02:55:03.346Z,101423.53
2022-12-11T02:57:38.152Z,101430.41
2022-12-11T03:00:06.551Z,101429.31
2022-12-11T03:02:34.149Z,101423.44
2022-12-11T03:05:01.778Z,101439.63
2022-12-11T03:07:31.902Z,101429.34
2022-12-11T03:09:59.668Z,101431.09
2022-12-11T03:12:32.106Z,101429.50
2022-12-11T03:15:01.608Z,101427.66
2022-12-11T03:17:29.742Z,101440.56
2022-12-11T03:20:05.396Z,101429.41
2022-12-11T03:22:46.104Z,101432.88
2022-12-11T03:25:17.306Z,101435.41
2022-12-11T03:27:58.077Z,101436.31
2022-12-11T03:30:27.710Z,101438.72
2022-12-11T03:32:58.228Z,101447.16
2022-12-11T03:35:25.451Z,101446.34
2022-12-11T03:37:53.707Z,101447.91
2022-12-11T03:40:22.786Z,101447.09
2022-12-11T03:42:52.165Z,101442.63
2022-12-11T03:45:20.932Z,101443.56
2022-12-11T03:47:49.570Z,101441.81
2022-12-11T03:50:18.250Z,101448.53
2022-12-11T03:52:46.823Z,101445.81
2022-12-11T03:55:16.213Z,101449.16
2022-12-11T03:57:43.648Z,101444.22
2022-12-11T04:00:15.423Z,101451.97
2022-12-11T04:02:43.264Z,101447.84
2022-12-11T04:05:11.570Z,101456.25
2022-12-11T04:07:39.227Z,101454.47
2022-12-11T04:10:07.059Z,101455.13
2022-12-11T04:12:34.640Z,101458.59
2022-12-11T04:15:02.211Z,101448.44
2022-12-11T04:17:50.154Z,101462.03
2022-12-11T04:20:37.004Z,101443.22
2022-12-11T04:23:24.307Z,101452.84
2022-12-11T04:25:51.925Z,101453.31
2022-12-11T04:28:19.462Z,101457.72
2022-12-11T04:30:50.336Z,101452.50
2022-12-11T04:33:17.582Z,101462.59
2022-12-11T04:35:44.879Z,101459.94
2022-12-11T04:38:12.877Z,101463.28
2022-12-11T04:40:40.160Z,101469.31
2022-12-11T04:43:07.351Z,101464.34
2022-12-11T04:45:34.636Z,101468.84
2022-12-11T04:48:02.138Z,101464.69
2022-12-11T04:50:29.725Z,101464.56
2022-12-11T04:52:57.554Z,101472.28
2022-12-11T04:55:25.123Z,101470.53
2022-12-11T04:57:52.675Z,101463.47
2022-12-11T05:00:19.913Z,101471.13
2022-12-11T05:02:47.180Z,101464.25
2022-12-11T05:05:15.060Z,101463.41
2022-12-11T05:07:42.441Z,101463.44
2022-12-11T05:10:10.403Z,101479.56
2022-12-11T05:12:37.690Z,101473.63
2022-12-11T05:15:05.244Z,101464.75
2022-12-11T05:17:32.595Z,101465.56
2022-12-11T05:19:59.974Z,101468.22
2022-12-11T05:22:27.335Z,101473.47
2022-12-11T05:24:54.556Z,101474.13
2022-12-11T05:27:21.844Z,101485.13
2022-12-11T05:29:54.813Z,101478.22
2022-12-11T05:32:25.119Z,101482.56
2022-12-11T05:34:52.364Z,101482.66
2022-12-11T05:37:19.725Z,101485.13
2022-12-11T05:39:47.271Z,101479.84
2022-12-11T05:42:14.522Z,101473.88
2022-12-11T05:44:41.822Z,101480.75
2022-12-11T05:47:09.341Z,101476.63
2022-12-11T05:49:38.104Z,101483.47
2022-12-11T05:52:05.595Z,101489.31
2022-12-11T05:54:33.081Z,101493.47
2022-12-11T05:57:00.682Z,101491.00
2022-12-11T05:59:28.211Z,101488.63
2022-12-11T06:01:55.872Z,101497.06
2022-12-11T06:04:23.525Z,101496.09
2022-12-11T06:06:53.651Z,101495.16
2022-12-11T06:09:21.144Z,101500.34
2022-12-11T06:11:48.349Z,101507.09
2022-12-11T06:14:15.656Z,101509.69
2022-12-11T06:16:43.373Z,101505.56
2022-12-11T06:19:15.107Z,101511.63
2022-12-11T06:21:43.967Z,101507.25
2022-12-11T06:24:11.965Z,101513.25
2022-12-11T06:26:39.360Z,101510.75
2022-12-11T06:29:10.930Z,101522.75
2022-12-11T06:31:40.507Z,101518.53
2022-12-11T06:34:08.545Z,101525.25
2022-12-11T06:36:35.830Z,101526.88
2022-12-11T06:39:03.908Z,101527.00
2022-12-11T06:41:31.737Z,101533.69
2022-12-11T06:43:58.973Z,101532.06
2022-12-11T06:46:26.498Z,101533.97
2022-12-11T06:48:53.835Z,101532.22
2022-12-11T06:51:22.635Z,101543.41
2022-12-11T06:53:51.136Z,101541.81
2022-12-11T06:56:19.051Z,101547.81
2022-12-11T06:58:46.545Z,101545.19
2022-12-11T07:01:18.468Z,101550.41
2022-12-11T07:03:46.216Z,101552.25
2022-12-11T07:06:14.053Z,101548.81
2022-12-11T07:08:42.028Z,101557.47
2022-12-11T07:11:11.405Z,101557.63
2022-12-11T07:13:39.018Z,101563.75
2022-12-11T07:16:11.043Z,101553.50
2022-12-11T07:18:39.579Z,101555.28
2022-12-11T07:21:07.529Z,101557.88
2022-12-11T07:23:35.418Z,101555.28
2022-12-11T07:26:07.401Z,101565.56
2022-12-11T07:28:35.294Z,101563.00
2022-12-11T07:31:09.163Z,101569.84
2022-12-11T07:33:36.487Z,101577.63
2022-12-11T07:36:05.219Z,101576.78
2022-12-11T07:38:32.516Z,101578.69
2022-12-11T07:41:01.065Z,101584.75
2022-12-11T07:43:28.899Z,101593.25
2022-12-11T07:46:00.567Z,101589.94
2022-12-11T07:48:28.108Z,101583.38
2022-12-11T07:50:55.677Z,101589.28
2022-12-11T07:53:23.233Z,101592.75
2022-12-11T07:55:50.786Z,101586.66
2022-12-11T07:58:18.380Z,101591.84
2022-12-11T08:00:45.883Z,101593.47
2022-12-11T08:03:13.253Z,101596.91
2022-12-11T08:05:40.498Z,101601.25
2022-12-11T08:08:07.714Z,101608.13
2022-12-11T08:10:34.966Z,101612.44
2022-12-11T08:13:02.439Z,101615.88
2022-12-11T08:15:30.023Z,101619.19
2022-12-11T08:17:57.297Z,101616.78
2022-12-11T08:20:25.000Z,101613.41
2022-12-11T08:22:58.809Z,101619.69
2022-12-11T08:25:26.665Z,101619.66
2022-12-11T08:27:54.414Z,101617.91
2022-12-11T08:30:21.740Z,101620.56
2022-12-11T08:32:49.060Z,101625.75
2022-12-11T08:35:16.387Z,101625.78
2022-12-11T08:37:44.025Z,101631.22
2022-12-11T08:40:12.426Z,101629.44
2022-12-11T08:42:39.822Z,101631.22
2022-12-11T08:45:07.608Z,101625.94
2022-12-11T08:47:35.055Z,101626.88
2022-12-11T08:50:05.305Z,101636.31
2022-12-11T08:52:34.193Z,101637.25
2022-12-11T08:55:01.917Z,101640.72
2022-12-11T08:57:29.751Z,101648.47
2022-12-11T08:59:58.142Z,101639.06
2022-12-11T09:02:25.457Z,101639.88
2022-12-11T09:04:52.795Z,101644.16
2022-12-11T09:07:20.045Z,101641.59
2022-12-11T09:09:47.408Z,101639.06
2022-12-11T09:12:14.805Z,101639.13
2022-12-11T09:14:42.087Z,101639.16
2022-12-11T09:17:09.416Z,101632.38
2022-12-11T09:19:36.964Z,101638.47
2022-12-11T09:22:04.201Z,101645.25
2022-12-11T09:24:31.714Z,101641.91
2022-12-11T09:26:59.240Z,101641.94
2022-12-11T09:29:27.565Z,101645.41
2022-12-11T09:31:55.272Z,101637.69
2022-12-11T09:34:28.838Z,101638.53
2022-12-11T09:36:57.010Z,101632.59
2022-12-11T09:39:24.460Z,101633.47
2022-12-11T09:42:09.905Z,101636.94
2022-12-11T09:44:37.640Z,101627.59
2022-12-11T09:47:16.090Z,101630.19
2022-12-11T09:49:44.681Z,101632.72
2022-12-11T09:52:11.894Z,101638.84
2022-12-11T09:54:57.941Z,101644.03
2022-12-11T09:57:39.768Z,101649.09
2022-12-11T10:00:19.199Z,101650.00
2022-12-11T10:02:49.708Z,101644.00
2022-12-11T10:05:26.602Z,101641.53
2022-12-11T10:07:53.951Z,101637.19
2022-12-11T10:10:24.166Z,101627.88
2022-12-11T10:13:04.859Z,101631.47
2022-12-11T10:15:39.710Z,101631.50
2022-12-11T10:18:11.372Z,101636.66
2022-12-11T10:20:42.814Z,101636.66
2022-12-11T10:23:16.812Z,101635.81
2022-12-11T10:25:53.381Z,101634.16
2022-12-11T10:28:21.391Z,101644.44
2022-12-11T10:31:00.824Z,101641.00
2022-12-11T10:33:48.302Z,101628.16
2022-12-11T10:36:19.061Z,101616.19
2022-12-11T10:38:47.543Z,101624.78
2022-12-11T10:41:18.511Z,101626.50
2022-12-11T10:43:47.381Z,101617.09
2022-12-11T10:46:25.673Z,101617.09
2022-12-11T10:48:54.209Z,101618.88
2022-12-11T10:51:23.014Z,101623.19
2022-12-11T10:53:55.467Z,101621.47
2022-12-11T10:56:27.380Z,101632.63
2022-12-11T10:58:56.092Z,101632.69
2022-12-11T11:01:24.393Z,101637.03
2022-12-11T11:04:14.261Z,101626.78
2022-12-11T11:06:41.546Z,101629.31
2022-12-11T11:09:28.155Z,101630.25
2022-12-11T11:11:56.156Z,101620.81
2022-12-11T11:14:23.876Z,101631.00
2022-12-11T11:16:54.645Z,101622.59
2022-12-11T11:19:29.421Z,101626.09
2022-12-11T11:21:58.509Z,101624.38
2022-12-11T11:24:31.005Z,101620.06
2022-12-11T11:27:13.173Z,101626.00
2022-12-11T11:29:42.183Z,101623.47
2022-12-11T11:32:15.357Z,101617.56
2022-12-11T11:34:43.239Z,101631.28
2022-12-11T11:37:36.567Z,101622.72
2022-12-11T11:40:24.373Z,101620.16
2022-12-11T11:42:54.476Z,101626.97
2022-12-11T11:45:24.995Z,101627.91
2022-12-11T11:48:11.729Z,101625.38
2022-12-11T11:50:44.835Z,101635.66
2022-12-11T11:53:17.239Z,101628.84
2022-12-11T11:55:54.009Z,101629.69
2022-12-11T11:58:28.084Z,101627.97
2022-12-11T12:00:55.794Z,101626.25
2022-12-11T12:03:25.321Z,101626.19
2022-12-11T12:06:15.145Z,101624.53
2022-12-11T12:08:45.566Z,101621.13
2022-12-11T12:11:25.955Z,101616.81
2022-12-11T12:13:56.252Z,101618.56
2022-12-11T12:16:52.377Z,101618.53
2022-12-11T12:19:21.140Z,101614.25
2022-12-11T12:21:51.030Z,101608.28
2022-12-11T12:24:24.302Z,101603.19
2022-12-11T12:26:57.741Z,101601.50
2022-12-11T12:29:36.195Z,101608.38
2022-12-11T12:32:08.344Z,101601.50
2022-12-11T12:34:50.027Z,101599.91
2022-12-11T12:37:45.830Z,101597.41
2022-12-11T12:40:25.726Z,101595.69
2022-12-11T12:43:00.296Z,101594.81
2022-12-11T12:45:35.289Z,101593.25
2022-12-11T12:48:02.548Z,101596.66
2022-12-11T12:50:37.174Z,101599.25
2022-12-11T12:53:06.406Z,101601.00
2022-12-11T12:55:34.947Z,101595.09
2022-12-11T12:58:05.609Z,101594.19
2022-12-11T13:00:35.383Z,101590.84
2022-12-11T13:03:14.954Z,101591.63
2022-12-11T13:05:44.744Z,101586.50
2022-12-11T13:08:13.316Z,101594.28
2022-12-11T13:10:42.224Z,101588.25
2022-12-11T13:13:50.208Z,101583.94
2022-12-11T13:16:20.866Z,101584.75
2022-12-11T13:18:49.095Z,101588.22
2022-12-11T13:21:35.947Z,101587.38
2022-12-11T13:24:12.507Z,101588.25
2022-12-11T13:26:41.103Z,101587.44
2022-12-11T13:29:28.162Z,101592.59
2022-12-11T13:31:57.749Z,101596.06
2022-12-11T13:34:28.082Z,101594.28
2022-12-11T13:36:55.793Z,101583.16
2022-12-11T13:39:28.049Z,101581.44
2022-12-11T13:41:58.289Z,101583.16
2022-12-11T13:44:30.707Z,101578.03
2022-12-11T13:47:00.110Z,101578.03
2022-12-11T13:49:47.823Z,101575.50
2022-12-11T13:52:18.111Z,101578.06
2022-12-11T13:54:49.492Z,101583.25
2022-12-11T13:57:18.055Z,101572.06
2022-12-11T13:59:50.685Z,101571.16
2022-12-11T14:02:27.556Z,101565.13
2022-12-11T14:05:06.985Z,101576.28
2022-12-11T14:07:36.285Z,101566.03
2022-12-11T14:10:06.368Z,101554.84
2022-12-11T14:12:34.093Z,101559.94
2022-12-11T14:15:02.824Z,101547.13
2022-12-11T14:17:31.743Z,101547.13
2022-12-11T14:20:01.604Z,101548.84
2022-12-11T14:22:30.126Z,101552.25
2022-12-11T14:24:59.166Z,101560.91
2022-12-11T14:27:27.635Z,101556.63
2022-12-11T14:29:57.840Z,101548.06
2022-12-11T14:32:35.172Z,101547.16
2022-12-11T14:35:06.049Z,101548.00
2022-12-11T14:37:34.721Z,101544.56
2022-12-11T14:40:07.571Z,101543.69
2022-12-11T14:42:41.019Z,101543.72
2022-12-11T14:45:16.806Z,101551.44
2022-12-11T14:47:44.875Z,101558.31
2022-12-11T14:50:22.209Z,101557.47
2022-12-11T14:52:56.154Z,101562.63
2022-12-11T14:55:30.707Z,101554.00
2022-12-11T14:58:00.651Z,101554.84
2022-12-11T15:00:30.308Z,101565.16
2022-12-11T15:03:20.743Z,101557.44
2022-12-11T15:05:52.713Z,101560.88
2022-12-11T15:08:30.584Z,101560.84
2022-12-11T15:11:08.940Z,101560.84
2022-12-11T15:13:47.895Z,101563.44
2022-12-11T15:16:15.898Z,101554.84
2022-12-11T15:18:43.633Z,101562.50
2022-12-11T15:21:12.326Z,101558.19
2022-12-11T15:23:39.823Z,101561.66
2022-12-11T15:26:07.574Z,101549.63
2022-12-11T15:28:36.285Z,101544.53
2022-12-11T15:31:05.379Z,101548.81
2022-12-11T15:33:34.777Z,101541.94
2022-12-11T15:36:04.701Z,101539.38
2022-12-11T15:38:33.715Z,101535.13
2022-12-11T15:41:02.002Z,101529.97
2022-12-11T15:43:32.144Z,101529.91
2022-12-11T15:45:59.415Z,101530.81
2022-12-11T15:48:27.067Z,101532.53
2022-12-11T15:50:54.687Z,101523.94
2022-12-11T15:53:22.670Z,101536.78
2022-12-11T15:55:51.094Z,101526.50
2022-12-11T15:58:19.854Z,101533.34
2022-12-11T16:00:47.440Z,101522.28
2022-12-11T16:03:16.536Z,101510.16
2022-12-11T16:05:44.656Z,101501.56
2022-12-11T16:08:17.055Z,101497.31
2022-12-11T16:10:45.283Z,101496.41
2022-12-11T16:13:13.221Z,101497.28
2022-12-11T16:15:42.636Z,101489.53
2022-12-11T16:18:11.706Z,101484.38
2022-12-11T16:20:40.181Z,101472.41
2022-12-11T16:23:08.395Z,101470.69
2022-12-11T16:25:39.910Z,101481.84
2022-12-11T16:28:07.844Z,101480.19
2022-12-11T16:30:36.160Z,101475.00
2022-12-11T16:33:10.237Z,101479.28
2022-12-11T16:35:39.995Z,101477.56
2022-12-11T16:38:07.876Z,101481.03
2022-12-11T16:40:35.549Z,101482.78
2022-12-11T16:43:05.030Z,101483.66
2022-12-11T16:45:32.781Z,101476.81
2022-12-11T16:48:04.221Z,101476.81
2022-12-11T16:50:32.500Z,101478.53
2022-12-11T16:52:59.966Z,101471.69
2022-12-11T16:55:27.815Z,101476.00
2022-12-11T16:57:55.548Z,101468.31
2022-12-11T17:00:25.711Z,101470.94
2022-12-11T17:02:53.273Z,101470.03
2022-12-11T17:05:20.967Z,101459.72
2022-12-11T17:07:48.499Z,101454.56
2022-12-11T17:10:16.127Z,101459.72
2022-12-11T17:12:43.593Z,101453.75
2022-12-11T17:15:11.464Z,101451.16
2022-12-11T17:17:40.286Z,101445.97
2022-12-11T17:20:09.769Z,101435.69
2022-12-11T17:22:37.453Z,101434.81
2022-12-11T17:25:04.854Z,101427.06
2022-12-11T17:27:32.190Z,101426.22
2022-12-11T17:30:00.234Z,101427.94
2022-12-11T17:32:27.665Z,101428.81
2022-12-11T17:34:55.097Z,101421.06
2022-12-11T17:37:22.344Z,101427.09
2022-12-11T17:39:53.235Z,101426.25
2022-12-11T17:42:20.609Z,101426.28
2022-12-11T17:44:48.382Z,101415.06
2022-12-11T17:47:15.713Z,101416.81
2022-12-11T17:49:43.395Z,101404.75
2022-12-11T17:52:10.778Z,101409.91
2022-12-11T17:54:39.298Z,101407.34
2022-12-11T17:57:06.989Z,101410.81
2022-12-11T17:59:35.552Z,101403.06
2022-12-11T18:02:03.364Z,101392.72
2022-12-11T18:04:30.841Z,101385.00
2022-12-11T18:06:58.866Z,101379.84
2022-12-11T18:09:26.327Z,101376.38
2022-12-11T18:11:53.967Z,101375.53
2022-12-11T18:14:21.368Z,101375.53
2022-12-11T18:16:48.814Z,101379.81
2022-12-11T18:19:16.379Z,101385.88
2022-12-11T18:21:45.698Z,101378.97
2022-12-11T18:24:13.153Z,101382.41
2022-12-11T18:26:42.890Z,101372.06
2022-12-11T18:29:10.796Z,101371.22
2022-12-11T18:31:42.407Z,101365.19
2022-12-11T18:34:11.007Z,101366.94
2022-12-11T18:36:38.509Z,101365.19
2022-12-11T18:39:06.123Z,101356.63
2022-12-11T18:41:33.730Z,101351.44
2022-12-11T18:44:06.637Z,101347.13
2022-12-11T18:46:37.455Z,101341.06
2022-12-11T18:49:05.411Z,101344.53
2022-12-11T18:51:33.293Z,101331.59
2022-12-11T18:54:00.789Z,101329.03
2022-12-11T18:56:28.339Z,101331.63
2022-12-11T18:58:55.903Z,101324.75
2022-12-11T19:01:25.263Z,101328.16
2022-12-11T19:03:58.870Z,101311.81
2022-12-11T19:06:32.065Z,101320.34
2022-12-11T19:09:00.393Z,101312.63
2022-12-11T19:11:29.270Z,101305.75
2022-12-11T19:13:57.590Z,101314.25
2022-12-11T19:16:35.377Z,101315.13
2022-12-11T19:19:09.955Z,101314.28
2022-12-11T19:21:38.504Z,101307.34
2022-12-11T19:24:07.456Z,101305.59
2022-12-11T19:26:35.926Z,101297.81
2022-12-11T19:29:04.041Z,101297.00
2022-12-11T19:31:32.221Z,101298.75
2022-12-11T19:34:00.171Z,101290.09
2022-12-11T19:36:29.087Z,101298.75
2022-12-11T19:39:01.484Z,101290.00
2022-12-11T19:41:30.295Z,101295.09
2022-12-11T19:43:58.562Z,101288.28
2022-12-11T19:46:27.861Z,101291.78
2022-12-11T19:48:57.154Z,101281.34
2022-12-11T19:51:28.349Z,101267.53
2022-12-11T19:53:56.146Z,101281.38
2022-12-11T19:56:24.093Z,101280.44
2022-12-11T19:58:52.023Z,101278.75
2022-12-11T20:01:24.868Z,101284.78
2022-12-11T20:03:53.596Z,101270.94
2022-12-11T20:06:21.716Z,101267.50
2022-12-11T20:08:49.908Z,101270.94
2022-12-11T20:11:18.904Z,101262.34
2022-12-11T20:13:47.170Z,101266.56
2022-12-11T20:16:15.587Z,101263.00
2022-12-11T20:18:43.665Z,101259.59
2022-12-11T20:21:15.195Z,101266.41
2022-12-11T20:23:43.129Z,101267.34
2022-12-11T20:26:12.549Z,101269.84
2022-12-11T20:28:40.688Z,101267.28
2022-12-11T20:31:13.551Z,101275.78
2022-12-11T20:33:44.496Z,101241.31
2022-12-11T20:36:13.730Z,101250.84
2022-12-11T20:38:41.819Z,101252.59
2022-12-11T20:41:10.098Z,101243.97
2022-12-11T20:43:38.135Z,101237.03
2022-12-11T20:46:06.618Z,101232.72
2022-12-11T20:48:34.611Z,101222.38
2022-12-11T20:51:06.565Z,101225.88
2022-12-11T20:53:34.986Z,101223.25
2022-12-11T20:56:08.675Z,101223.34
2022-12-11T20:58:36.521Z,101212.81
2022-12-11T21:01:04.470Z,101211.09
2022-12-11T21:03:35.377Z,101214.44
2022-12-11T21:06:05.239Z,101205.78
2022-12-11T21:08:32.828Z,101203.28
2022-12-11T21:11:00.079Z,101204.09
2022-12-11T21:15:08.844Z,101184.94
2022-12-11T21:17:36.812Z,101180.56
2022-12-11T21:20:04.937Z,101188.19
2022-12-11T21:22:32.725Z,101188.13
2022-12-11T21:25:00.859Z,101175.19
2022-12-11T21:27:28.567Z,101189.47
2022-12-11T21:29:57.896Z,101193.75
2022-12-11T21:32:25.709Z,101195.47
2022-12-11T21:34:56.078Z,101175.38
2022-12-11T21:37:23.584Z,101176.19
2022-12-11T21:40:00.278Z,101186.66
2022-12-11T21:42:28.060Z,101170.00
2022-12-11T21:45:44.313Z,101170.00
2022-12-11T21:47:43.629Z,101160.59
2022-12-11T21:50:11.206Z,101171.13
2022-12-11T21:52:40.077Z,101169.78
2022-12-11T21:55:08.091Z,101164.78
2022-12-11T21:57:36.109Z,101162.13
2022-12-11T22:00:07.430Z,101166.47
2022-12-11T22:02:40.489Z,101156.38
2022-12-11T22:05:09.540Z,101166.75
2022-12-11T22:07:37.434Z,101162.22
2022-12-11T22:10:06.404Z,101160.47
2022-12-11T22:12:34.039Z,101149.13
2022-12-11T22:15:09.758Z,101145.28
2022-12-11T22:17:37.737Z,101152.22
2022-12-11T22:20:06.744Z,101150.00
2022-12-11T22:22:40.258Z,101146.38
2022-12-11T22:25:08.332Z,101137.53
2022-12-11T22:27:36.496Z,101142.75
2022-12-11T22:30:05.446Z,101136.81
2022-12-11T22:32:33.390Z,101126.44
2022-12-11T22:35:01.205Z,101130.72
2022-12-11T22:37:34.546Z,101130.66
2022-12-11T22:40:06.149Z,101130.66
2022-12-11T22:42:38.703Z,101125.31
2022-12-11T22:45:07.812Z,101121.22
2022-12-11T22:47:37.313Z,101111.53
2022-12-11T22:50:08.161Z,101113.03
2022-12-11T22:52:36.472Z,101117.41
2022-12-11T22:55:04.791Z,101116.38
2022-12-11T22:57:32.495Z,101114.59
2022-12-11T23:00:00.294Z,101120.88
2022-12-11T23:02:29.194Z,101121.75
2022-12-11T23:04:57.338Z,101122.38
2022-12-11T23:07:25.781Z,101118.22
2022-12-11T23:09:54.719Z,101113.59
2022-12-11T23:12:23.966Z,101122.38
2022-12-11T23:14:52.198Z,101105.03
2022-12-11T23:17:20.362Z,101111.13
2022-12-11T23:19:49.358Z,101119.03
2022-12-11T23:22:17.638Z,101116.38
2022-12-11T23:24:45.464Z,101114.75
2022-12-11T23:27:13.230Z,101118.84
2022-12-11T23:29:45.844Z,101109.22
2022-12-11T23:32:14.054Z,101127.22
2022-12-11T23:34:42.259Z,101124.53
2022-12-11T23:37:10.751Z,101138.34
2022-12-11T23:39:39.093Z,101120.41
2022-12-11T23:42:09.397Z,101106.53
2022-12-11T23:44:37.568Z,101096.13
2022-12-11T23:47:05.979Z,101084.06
2022-12-11T23:49:34.684Z,101080.69
2022-12-11T23:52:03.255Z,101096.31
2022-12-11T23:54:31.687Z,101095.31
2022-12-11T23:56:59.580Z,101077.88
2022-12-11T23:59:28.306Z,101105.53
